Wheeling, Missouri
Current Conditions -  °F | °C
As of 8:55 PM on Sunday 21 Dec 2014 (Local Time) from KIRK Reporting Station
Overcast Overcast  
Wind Chill: 34°   Ceiling: 1500
Heat Index: 41°   Visibility: 8mi
Dew Point: 39°   Wind: 13mph
Humidity: 93%   Direction: 160°SSE
Pressure: 29.86"   Gusts: NA
Location:  39.79°N, 93.39°W
Report Text: KIRK 220255Z AUTO 16011KT 8SM OVC015 05/04 A2986 RMK AO2 SLP120 60000 T00500039 58009
Loading
Personal Weather Stations






























Interactive Weather Map New forecast layout! Learn more

10-Day Weather Forecast

Advertisements
Track Severe Weather on mobile